sensor_id;sensor_type;location;lat;lon;timestamp;P1;durP1;ratioP1;P2;durP2;ratioP2
17818;SDS011;9034;50.284;19.310;2023-05-29T00:00:13;5.00;;;3.45;;
17818;SDS011;9034;50.284;19.310;2023-05-29T00:01:19;4.82;;;3.58;;
17818;SDS011;9034;50.284;19.310;2023-05-29T00:02:22;4.05;;;3.10;;
17818;SDS011;9034;50.284;19.310;2023-05-29T00:03:25;4.20;;;3.25;;
17818;SDS011;9034;50.284;19.310;2023-05-29T00:04:27;3.88;;;3.00;;
17818;SDS011;9034;50.284;19.310;2023-05-29T00:05:30;3.63;;;2.45;;
17818;SDS011;9034;50.284;19.310;2023-05-29T00:06:33;4.47;;;3.78;;
17818;SDS011;9034;50.284;19.310;2023-05-29T00:07:37;3.67;;;2.78;;
17818;SDS011;9034;50.284;19.310;2023-05-29T00:08:39;7.07;;;3.63;;
17818;SDS011;9034;50.284;19.310;2023-05-29T00:09:42;3.10;;;2.80;;
17818;SDS011;9034;50.284;19.310;2023-05-29T00:10:44;4.70;;;3.40;;
17818;SDS011;9034;50.284;19.310;2023-05-29T00:11:47;4.15;;;3.20;;
17818;SDS011;9034;50.284;19.310;2023-05-29T00:12:52;6.30;;;3.45;;
17818;SDS011;9034;50.284;19.310;2023-05-29T00:13:57;6.68;;;3.20;;
17818;SDS011;9034;50.284;19.310;2023-05-29T00:14:59;3.97;;;3.20;;
17818;SDS011;9034;50.284;19.310;2023-05-29T00:16:02;5.15;;;3.40;;
17818;SDS011;9034;50.284;19.310;2023-05-29T00:17:05;3.45;;;2.92;;
17818;SDS011;9034;50.284;19.310;2023-05-29T00:18:08;3.50;;;2.90;;
17818;SDS011;9034;50.284;19.310;2023-05-29T00:19:10;7.13;;;3.63;;
17818;SDS011;9034;50.284;19.310;2023-05-29T00:20:13;5.35;;;3.75;;
17818;SDS011;9034;50.284;19.310;2023-05-29T00:21:15;5.80;;;3.72;;
17818;SDS011;9034;50.284;19.310;2023-05-29T00:22:19;3.92;;;3.17;;
17818;SDS011;9034;50.284;19.310;2023-05-29T00:23:21;3.80;;;3.15;;
17818;SDS011;9034;50.284;19.310;2023-05-29T00:24:24;4.93;;;3.85;;
17818;SDS011;9034;50.284;19.310;2023-05-29T00:25:26;4.57;;;3.42;;
17818;SDS011;9034;50.284;19.310;2023-05-29T00:26:29;5.07;;;3.60;;
17818;SDS011;9034;50.284;19.310;2023-05-29T00:27:32;3.28;;;2.85;;
17818;SDS011;9034;50.284;19.310;2023-05-29T00:28:35;5.68;;;3.53;;
17818;SDS011;9034;50.284;19.310;2023-05-29T00:29:37;6.38;;;3.33;;
17818;SDS011;9034;50.284;19.310;2023-05-29T00:30:40;4.72;;;3.35;;
17818;SDS011;9034;50.284;19.310;2023-05-29T00:31:42;4.63;;;3.55;;
17818;SDS011;9034;50.284;19.310;2023-05-29T00:32:45;4.38;;;3.13;;
17818;SDS011;9034;50.284;19.310;2023-05-29T00:33:48;4.55;;;3.45;;
17818;SDS011;9034;50.284;19.310;2023-05-29T00:34:51;4.03;;;3.05;;
17818;SDS011;9034;50.284;19.310;2023-05-29T00:35:53;5.20;;;3.50;;
17818;SDS011;9034;50.284;19.310;2023-05-29T00:36:56;5.43;;;3.92;;
17818;SDS011;9034;50.284;19.310;2023-05-29T00:37:59;5.78;;;3.22;;
17818;SDS011;9034;50.284;19.310;2023-05-29T00:39:02;3.50;;;2.95;;
17818;SDS011;9034;50.284;19.310;2023-05-29T00:40:05;3.55;;;3.20;;
17818;SDS011;9034;50.284;19.310;2023-05-29T00:41:12;5.30;;;3.30;;
17818;SDS011;9034;50.284;19.310;2023-05-29T00:42:15;3.22;;;2.85;;
17818;SDS011;9034;50.284;19.310;2023-05-29T00:43:18;6.18;;;3.58;;
17818;SDS011;9034;50.284;19.310;2023-05-29T00:44:20;5.43;;;3.30;;
17818;SDS011;9034;50.284;19.310;2023-05-29T00:45:24;5.05;;;3.45;;
17818;SDS011;9034;50.284;19.310;2023-05-29T00:46:26;3.80;;;3.25;;
17818;SDS011;9034;50.284;19.310;2023-05-29T00:47:29;3.55;;;3.17;;
17818;SDS011;9034;50.284;19.310;2023-05-29T00:48:31;5.43;;;3.20;;
17818;SDS011;9034;50.284;19.310;2023-05-29T00:49:34;3.80;;;3.05;;
17818;SDS011;9034;50.284;19.310;2023-05-29T00:50:37;3.55;;;2.78;;
17818;SDS011;9034;50.284;19.310;2023-05-29T00:51:40;4.72;;;3.10;;
17818;SDS011;9034;50.284;19.310;2023-05-29T00:52:44;3.60;;;3.00;;
17818;SDS011;9034;50.284;19.310;2023-05-29T00:53:49;3.40;;;2.70;;
17818;SDS011;9034;50.284;19.310;2023-05-29T00:54:52;4.18;;;3.20;;
17818;SDS011;9034;50.284;19.310;2023-05-29T00:55:55;6.75;;;3.05;;
17818;SDS011;9034;50.284;19.310;2023-05-29T00:56:57;5.05;;;3.10;;
17818;SDS011;9034;50.284;19.310;2023-05-29T00:58:02;5.07;;;3.03;;
17818;SDS011;9034;50.284;19.310;2023-05-29T00:59:04;3.55;;;3.03;;
17818;SDS011;9034;50.284;19.310;2023-05-29T01:00:08;3.17;;;2.70;;
17818;SDS011;9034;50.284;19.310;2023-05-29T01:01:13;3.88;;;3.15;;
17818;SDS011;9034;50.284;19.310;2023-05-29T01:02:16;3.75;;;2.70;;
17818;SDS011;9034;50.284;19.310;2023-05-29T01:03:18;5.25;;;2.78;;
17818;SDS011;9034;50.284;19.310;2023-05-29T01:04:21;5.63;;;3.03;;
17818;SDS011;9034;50.284;19.310;2023-05-29T01:05:25;4.32;;;2.85;;
17818;SDS011;9034;50.284;19.310;2023-05-29T01:06:28;4.35;;;2.58;;
17818;SDS011;9034;50.284;19.310;2023-05-29T01:07:30;3.55;;;2.90;;
17818;SDS011;9034;50.284;19.310;2023-05-29T01:08:34;3.55;;;3.15;;
17818;SDS011;9034;50.284;19.310;2023-05-29T01:09:37;4.13;;;3.10;;
17818;SDS011;9034;50.284;19.310;2023-05-29T01:10:41;3.55;;;2.63;;
17818;SDS011;9034;50.284;19.310;2023-05-29T01:11:49;4.13;;;3.70;;
17818;SDS011;9034;50.284;19.310;2023-05-29T01:12:56;4.78;;;3.10;;
17818;SDS011;9034;50.284;19.310;2023-05-29T01:14:01;5.30;;;3.30;;
17818;SDS011;9034;50.284;19.310;2023-05-29T01:15:14;4.90;;;3.28;;
17818;SDS011;9034;50.284;19.310;2023-05-29T01:16:25;3.53;;;3.08;;
17818;SDS011;9034;50.284;19.310;2023-05-29T01:17:37;3.22;;;2.72;;
17818;SDS011;9034;50.284;19.310;2023-05-29T01:18:46;4.43;;;3.20;;
17818;SDS011;9034;50.284;19.310;2023-05-29T01:19:59;9.43;;;3.28;;
17818;SDS011;9034;50.284;19.310;2023-05-29T01:21:09;5.63;;;3.03;;
17818;SDS011;9034;50.284;19.310;2023-05-29T01:22:17;4.70;;;3.40;;
17818;SDS011;9034;50.284;19.310;2023-05-29T01:25:11;5.18;;;2.90;;
17818;SDS011;9034;50.284;19.310;2023-05-29T01:27:55;5.30;;;3.47;;
17818;SDS011;9034;50.284;19.310;2023-05-29T01:28:59;5.55;;;3.30;;
17818;SDS011;9034;50.284;19.310;2023-05-29T01:30:03;4.80;;;3.72;;
17818;SDS011;9034;50.284;19.310;2023-05-29T01:31:07;5.10;;;3.30;;
17818;SDS011;9034;50.284;19.310;2023-05-29T01:32:10;7.35;;;3.88;;
17818;SDS011;9034;50.284;19.310;2023-05-29T01:33:12;6.40;;;4.07;;
17818;SDS011;9034;50.284;19.310;2023-05-29T01:34:16;7.25;;;4.13;;
17818;SDS011;9034;50.284;19.310;2023-05-29T01:35:18;5.85;;;4.05;;
17818;SDS011;9034;50.284;19.310;2023-05-29T01:36:21;5.22;;;3.97;;
17818;SDS011;9034;50.284;19.310;2023-05-29T01:37:23;7.70;;;4.65;;
17818;SDS011;9034;50.284;19.310;2023-05-29T01:38:27;9.13;;;5.38;;
17818;SDS011;9034;50.284;19.310;2023-05-29T01:39:29;7.18;;;4.85;;
17818;SDS011;9034;50.284;19.310;2023-05-29T01:40:33;10.35;;;5.55;;
17818;SDS011;9034;50.284;19.310;2023-05-29T01:41:35;6.10;;;4.40;;
17818;SDS011;9034;50.284;19.310;2023-05-29T01:42:41;6.18;;;4.55;;
17818;SDS011;9034;50.284;19.310;2023-05-29T01:43:44;6.78;;;4.40;;
17818;SDS011;9034;50.284;19.310;2023-05-29T01:44:47;6.32;;;4.28;;
17818;SDS011;9034;50.284;19.310;2023-05-29T01:45:50;6.72;;;4.95;;
17818;SDS011;9034;50.284;19.310;2023-05-29T01:46:52;7.18;;;4.45;;
17818;SDS011;9034;50.284;19.310;2023-05-29T01:47:55;6.05;;;4.20;;
17818;SDS011;9034;50.284;19.310;2023-05-29T01:48:58;6.50;;;4.10;;
17818;SDS011;9034;50.284;19.310;2023-05-29T01:51:25;6.63;;;3.88;;
17818;SDS011;9034;50.284;19.310;2023-05-29T01:52:27;6.50;;;4.20;;
17818;SDS011;9034;50.284;19.310;2023-05-29T01:53:30;7.00;;;4.05;;
17818;SDS011;9034;50.284;19.310;2023-05-29T01:54:32;6.22;;;4.05;;
17818;SDS011;9034;50.284;19.310;2023-05-29T01:55:35;5.13;;;3.50;;
17818;SDS011;9034;50.284;19.310;2023-05-29T01:56:36;4.80;;;3.97;;
17818;SDS011;9034;50.284;19.310;2023-05-29T01:57:42;4.38;;;3.50;;
17818;SDS011;9034;50.284;19.310;2023-05-29T01:58:44;7.20;;;3.92;;
17818;SDS011;9034;50.284;19.310;2023-05-29T01:59:48;5.65;;;3.78;;
17818;SDS011;9034;50.284;19.310;2023-05-29T02:00:50;5.88;;;4.05;;
17818;SDS011;9034;50.284;19.310;2023-05-29T02:01:54;8.85;;;4.22;;
17818;SDS011;9034;50.284;19.310;2023-05-29T02:02:56;6.90;;;4.15;;
17818;SDS011;9034;50.284;19.310;2023-05-29T02:03:59;4.93;;;3.20;;
17818;SDS011;9034;50.284;19.310;2023-05-29T02:05:02;3.83;;;3.03;;
17818;SDS011;9034;50.284;19.310;2023-05-29T02:06:05;5.38;;;3.38;;
17818;SDS011;9034;50.284;19.310;2023-05-29T02:07:08;8.13;;;3.75;;
17818;SDS011;9034;50.284;19.310;2023-05-29T02:08:13;4.38;;;3.20;;
17818;SDS011;9034;50.284;19.310;2023-05-29T02:09:16;5.90;;;3.13;;
17818;SDS011;9034;50.284;19.310;2023-05-29T02:10:20;6.78;;;3.50;;
17818;SDS011;9034;50.284;19.310;2023-05-29T02:11:22;4.03;;;3.10;;
17818;SDS011;9034;50.284;19.310;2023-05-29T02:12:25;7.85;;;3.70;;
17818;SDS011;9034;50.284;19.310;2023-05-29T02:13:28;4.75;;;3.30;;
17818;SDS011;9034;50.284;19.310;2023-05-29T02:14:31;3.63;;;3.10;;
17818;SDS011;9034;50.284;19.310;2023-05-29T02:15:33;5.68;;;3.30;;
17818;SDS011;9034;50.284;19.310;2023-05-29T02:16:36;4.28;;;3.08;;
17818;SDS011;9034;50.284;19.310;2023-05-29T02:17:38;3.72;;;3.30;;
17818;SDS011;9034;50.284;19.310;2023-05-29T02:18:42;3.95;;;3.28;;
17818;SDS011;9034;50.284;19.310;2023-05-29T02:19:45;4.15;;;2.97;;
17818;SDS011;9034;50.284;19.310;2023-05-29T02:20:48;5.60;;;3.67;;
17818;SDS011;9034;50.284;19.310;2023-05-29T02:21:56;4.90;;;3.38;;
17818;SDS011;9034;50.284;19.310;2023-05-29T02:22:59;3.60;;;2.97;;
17818;SDS011;9034;50.284;19.310;2023-05-29T02:24:01;5.53;;;3.72;;
17818;SDS011;9034;50.284;19.310;2023-05-29T02:25:04;4.68;;;3.85;;
17818;SDS011;9034;50.284;19.310;2023-05-29T02:26:07;5.78;;;3.83;;
17818;SDS011;9034;50.284;19.310;2023-05-29T02:27:10;6.13;;;3.63;;
17818;SDS011;9034;50.284;19.310;2023-05-29T02:28:12;4.05;;;3.42;;
17818;SDS011;9034;50.284;19.310;2023-05-29T02:29:16;5.45;;;3.75;;
17818;SDS011;9034;50.284;19.310;2023-05-29T02:30:20;5.45;;;3.95;;
17818;SDS011;9034;50.284;19.310;2023-05-29T02:31:21;5.18;;;3.20;;
17818;SDS011;9034;50.284;19.310;2023-05-29T02:32:24;5.70;;;3.45;;
17818;SDS011;9034;50.284;19.310;2023-05-29T02:33:27;4.32;;;3.08;;
17818;SDS011;9034;50.284;19.310;2023-05-29T02:34:31;4.90;;;3.33;;
17818;SDS011;9034;50.284;19.310;2023-05-29T02:35:33;4.88;;;2.75;;
17818;SDS011;9034;50.284;19.310;2023-05-29T02:36:38;4.50;;;3.35;;
17818;SDS011;9034;50.284;19.310;2023-05-29T02:37:41;3.97;;;3.40;;
17818;SDS011;9034;50.284;19.310;2023-05-29T02:38:43;4.63;;;3.45;;
17818;SDS011;9034;50.284;19.310;2023-05-29T02:39:45;4.82;;;3.45;;
17818;SDS011;9034;50.284;19.310;2023-05-29T02:40:47;4.43;;;3.30;;
17818;SDS011;9034;50.284;19.310;2023-05-29T02:41:51;4.50;;;3.40;;
17818;SDS011;9034;50.284;19.310;2023-05-29T02:42:54;3.70;;;3.38;;
17818;SDS011;9034;50.284;19.310;2023-05-29T02:43:57;5.80;;;4.15;;
17818;SDS011;9034;50.284;19.310;2023-05-29T02:45:01;10.02;;;3.33;;
17818;SDS011;9034;50.284;19.310;2023-05-29T02:46:04;7.10;;;3.72;;
17818;SDS011;9034;50.284;19.310;2023-05-29T02:47:06;5.47;;;3.15;;
17818;SDS011;9034;50.284;19.310;2023-05-29T02:48:09;4.57;;;3.55;;
17818;SDS011;9034;50.284;19.310;2023-05-29T02:49:11;5.53;;;3.72;;
17818;SDS011;9034;50.284;19.310;2023-05-29T02:50:14;5.05;;;4.10;;
17818;SDS011;9034;50.284;19.310;2023-05-29T02:51:16;6.22;;;4.30;;
17818;SDS011;9034;50.284;19.310;2023-05-29T02:52:19;3.28;;;2.90;;
17818;SDS011;9034;50.284;19.310;2023-05-29T02:53:20;3.80;;;3.20;;
17818;SDS011;9034;50.284;19.310;2023-05-29T02:54:23;3.13;;;2.70;;
17818;SDS011;9034;50.284;19.310;2023-05-29T02:55:26;5.38;;;3.45;;
17818;SDS011;9034;50.284;19.310;2023-05-29T02:56:29;4.90;;;3.40;;
17818;SDS011;9034;50.284;19.310;2023-05-29T02:57:31;4.28;;;3.40;;
17818;SDS011;9034;50.284;19.310;2023-05-29T02:58:34;6.55;;;3.58;;
17818;SDS011;9034;50.284;19.310;2023-05-29T02:59:37;4.93;;;3.60;;
17818;SDS011;9034;50.284;19.310;2023-05-29T03:00:41;5.63;;;3.58;;
17818;SDS011;9034;50.284;19.310;2023-05-29T03:01:43;5.20;;;4.13;;
17818;SDS011;9034;50.284;19.310;2023-05-29T03:02:46;3.88;;;3.20;;
17818;SDS011;9034;50.284;19.310;2023-05-29T03:03:49;5.68;;;3.58;;
17818;SDS011;9034;50.284;19.310;2023-05-29T03:04:51;5.85;;;3.53;;
17818;SDS011;9034;50.284;19.310;2023-05-29T03:05:55;7.22;;;3.75;;
17818;SDS011;9034;50.284;19.310;2023-05-29T03:06:57;6.93;;;3.80;;
17818;SDS011;9034;50.284;19.310;2023-05-29T03:07:59;9.32;;;3.90;;
17818;SDS011;9034;50.284;19.310;2023-05-29T03:09:03;7.18;;;3.90;;
17818;SDS011;9034;50.284;19.310;2023-05-29T03:10:06;8.35;;;4.28;;
17818;SDS011;9034;50.284;19.310;2023-05-29T03:11:11;14.18;;;4.22;;
17818;SDS011;9034;50.284;19.310;2023-05-29T03:12:13;8.90;;;3.90;;
17818;SDS011;9034;50.284;19.310;2023-05-29T03:13:17;8.32;;;4.22;;
17818;SDS011;9034;50.284;19.310;2023-05-29T03:14:27;9.45;;;3.78;;
17818;SDS011;9034;50.284;19.310;2023-05-29T03:15:30;10.48;;;4.15;;
17818;SDS011;9034;50.284;19.310;2023-05-29T03:16:33;7.90;;;4.40;;
17818;SDS011;9034;50.284;19.310;2023-05-29T03:17:37;6.72;;;4.15;;
17818;SDS011;9034;50.284;19.310;2023-05-29T03:18:44;10.32;;;5.07;;
17818;SDS011;9034;50.284;19.310;2023-05-29T03:19:49;8.55;;;4.53;;
17818;SDS011;9034;50.284;19.310;2023-05-29T03:20:53;8.13;;;4.40;;
17818;SDS011;9034;50.284;19.310;2023-05-29T03:21:56;4.75;;;3.78;;
17818;SDS011;9034;50.284;19.310;2023-05-29T03:22:58;11.95;;;4.22;;
17818;SDS011;9034;50.284;19.310;2023-05-29T03:24:03;9.05;;;4.28;;
17818;SDS011;9034;50.284;19.310;2023-05-29T03:25:08;10.70;;;4.10;;
17818;SDS011;9034;50.284;19.310;2023-05-29T03:26:11;8.75;;;4.07;;
17818;SDS011;9034;50.284;19.310;2023-05-29T03:27:14;7.22;;;3.80;;
17818;SDS011;9034;50.284;19.310;2023-05-29T03:28:18;6.30;;;3.85;;
17818;SDS011;9034;50.284;19.310;2023-05-29T03:29:21;9.60;;;3.95;;
17818;SDS011;9034;50.284;19.310;2023-05-29T03:30:26;10.57;;;4.20;;
17818;SDS011;9034;50.284;19.310;2023-05-29T03:31:28;8.93;;;3.95;;
17818;SDS011;9034;50.284;19.310;2023-05-29T03:32:33;7.90;;;4.10;;
17818;SDS011;9034;50.284;19.310;2023-05-29T03:33:35;8.23;;;4.45;;
17818;SDS011;9034;50.284;19.310;2023-05-29T03:34:49;4.75;;;3.95;;
17818;SDS011;9034;50.284;19.310;2023-05-29T03:35:51;7.63;;;4.30;;
17818;SDS011;9034;50.284;19.310;2023-05-29T03:36:54;5.72;;;4.00;;
17818;SDS011;9034;50.284;19.310;2023-05-29T03:37:59;5.65;;;4.10;;
17818;SDS011;9034;50.284;19.310;2023-05-29T03:39:02;7.15;;;4.15;;
17818;SDS011;9034;50.284;19.310;2023-05-29T03:40:05;6.72;;;4.18;;
17818;SDS011;9034;50.284;19.310;2023-05-29T03:41:07;5.82;;;3.67;;
17818;SDS011;9034;50.284;19.310;2023-05-29T03:42:11;6.57;;;4.35;;
17818;SDS011;9034;50.284;19.310;2023-05-29T03:43:13;6.88;;;4.93;;
17818;SDS011;9034;50.284;19.310;2023-05-29T03:44:16;5.25;;;3.88;;
17818;SDS011;9034;50.284;19.310;2023-05-29T03:45:18;7.95;;;4.75;;
17818;SDS011;9034;50.284;19.310;2023-05-29T03:46:21;6.50;;;4.85;;
17818;SDS011;9034;50.284;19.310;2023-05-29T03:47:23;5.05;;;4.28;;
17818;SDS011;9034;50.284;19.310;2023-05-29T03:48:29;7.03;;;4.47;;
17818;SDS011;9034;50.284;19.310;2023-05-29T03:49:31;7.85;;;4.32;;
17818;SDS011;9034;50.284;19.310;2023-05-29T03:50:36;5.65;;;3.90;;
17818;SDS011;9034;50.284;19.310;2023-05-29T03:51:38;6.50;;;4.53;;
17818;SDS011;9034;50.284;19.310;2023-05-29T03:52:41;12.02;;;4.72;;
17818;SDS011;9034;50.284;19.310;2023-05-29T03:53:43;5.55;;;4.50;;
17818;SDS011;9034;50.284;19.310;2023-05-29T03:54:46;11.07;;;5.25;;
17818;SDS011;9034;50.284;19.310;2023-05-29T03:55:48;10.65;;;5.10;;
17818;SDS011;9034;50.284;19.310;2023-05-29T03:56:51;10.13;;;4.93;;
17818;SDS011;9034;50.284;19.310;2023-05-29T03:57:52;11.00;;;5.50;;
17818;SDS011;9034;50.284;19.310;2023-05-29T03:58:55;8.73;;;5.35;;
17818;SDS011;9034;50.284;19.310;2023-05-29T03:59:57;9.75;;;5.30;;
17818;SDS011;9034;50.284;19.310;2023-05-29T04:01:00;7.70;;;4.38;;
17818;SDS011;9034;50.284;19.310;2023-05-29T04:02:04;7.15;;;5.00;;
17818;SDS011;9034;50.284;19.310;2023-05-29T04:03:09;6.18;;;4.72;;
17818;SDS011;9034;50.284;19.310;2023-05-29T04:04:14;7.10;;;5.00;;
17818;SDS011;9034;50.284;19.310;2023-05-29T04:05:18;6.22;;;5.15;;
17818;SDS011;9034;50.284;19.310;2023-05-29T04:06:20;5.93;;;4.57;;
17818;SDS011;9034;50.284;19.310;2023-05-29T04:07:24;7.15;;;4.72;;
17818;SDS011;9034;50.284;19.310;2023-05-29T04:08:27;9.10;;;5.18;;
17818;SDS011;9034;50.284;19.310;2023-05-29T04:09:29;8.13;;;5.22;;
17818;SDS011;9034;50.284;19.310;2023-05-29T04:10:31;6.07;;;5.00;;
17818;SDS011;9034;50.284;19.310;2023-05-29T04:11:35;8.52;;;5.15;;
17818;SDS011;9034;50.284;19.310;2023-05-29T04:12:37;11.20;;;5.63;;
17818;SDS011;9034;50.284;19.310;2023-05-29T04:13:40;10.90;;;5.78;;
17818;SDS011;9034;50.284;19.310;2023-05-29T04:14:44;11.82;;;5.90;;
17818;SDS011;9034;50.284;19.310;2023-05-29T04:15:47;13.93;;;5.60;;
17818;SDS011;9034;50.284;19.310;2023-05-29T04:16:51;12.02;;;5.70;;
17818;SDS011;9034;50.284;19.310;2023-05-29T04:17:53;10.80;;;4.93;;
17818;SDS011;9034;50.284;19.310;2023-05-29T04:18:56;11.30;;;5.15;;
17818;SDS011;9034;50.284;19.310;2023-05-29T04:20:04;9.52;;;4.88;;
17818;SDS011;9034;50.284;19.310;2023-05-29T04:21:09;11.82;;;5.38;;
17818;SDS011;9034;50.284;19.310;2023-05-29T04:22:12;9.25;;;4.80;;
17818;SDS011;9034;50.284;19.310;2023-05-29T04:23:14;10.15;;;5.60;;
17818;SDS011;9034;50.284;19.310;2023-05-29T04:24:17;7.97;;;5.05;;
17818;SDS011;9034;50.284;19.310;2023-05-29T04:25:19;9.68;;;5.38;;
17818;SDS011;9034;50.284;19.310;2023-05-29T04:26:22;11.88;;;5.50;;
17818;SDS011;9034;50.284;19.310;2023-05-29T04:27:26;12.25;;;5.07;;
17818;SDS011;9034;50.284;19.310;2023-05-29T04:28:29;6.47;;;4.70;;
17818;SDS011;9034;50.284;19.310;2023-05-29T04:29:33;9.07;;;5.00;;
17818;SDS011;9034;50.284;19.310;2023-05-29T04:30:36;9.23;;;4.30;;
17818;SDS011;9034;50.284;19.310;2023-05-29T04:31:38;11.90;;;5.97;;
17818;SDS011;9034;50.284;19.310;2023-05-29T04:32:41;9.25;;;6.57;;
17818;SDS011;9034;50.284;19.310;2023-05-29T04:33:44;9.93;;;5.65;;
17818;SDS011;9034;50.284;19.310;2023-05-29T04:34:47;7.78;;;5.03;;
17818;SDS011;9034;50.284;19.310;2023-05-29T04:35:51;10.90;;;5.97;;
17818;SDS011;9034;50.284;19.310;2023-05-29T04:36:55;9.70;;;5.00;;
17818;SDS011;9034;50.284;19.310;2023-05-29T04:37:57;10.77;;;6.00;;
17818;SDS011;9034;50.284;19.310;2023-05-29T04:39:04;10.60;;;5.50;;
17818;SDS011;9034;50.284;19.310;2023-05-29T04:40:07;14.30;;;6.40;;
17818;SDS011;9034;50.284;19.310;2023-05-29T04:41:13;12.02;;;7.40;;
17818;SDS011;9034;50.284;19.310;2023-05-29T04:42:15;15.68;;;9.52;;
17818;SDS011;9034;50.284;19.310;2023-05-29T04:43:18;20.70;;;10.70;;
17818;SDS011;9034;50.284;19.310;2023-05-29T04:44:31;18.60;;;9.45;;
17818;SDS011;9034;50.284;19.310;2023-05-29T04:45:34;12.90;;;7.40;;
17818;SDS011;9034;50.284;19.310;2023-05-29T04:46:38;11.85;;;7.03;;
17818;SDS011;9034;50.284;19.310;2023-05-29T04:47:41;15.57;;;8.32;;
17818;SDS011;9034;50.284;19.310;2023-05-29T04:48:46;15.90;;;8.00;;
17818;SDS011;9034;50.284;19.310;2023-05-29T04:49:49;16.40;;;9.50;;
17818;SDS011;9034;50.284;19.310;2023-05-29T04:50:53;19.80;;;10.25;;
17818;SDS011;9034;50.284;19.310;2023-05-29T04:51:57;23.42;;;12.07;;
17818;SDS011;9034;50.284;19.310;2023-05-29T04:53:01;23.30;;;12.20;;
17818;SDS011;9034;50.284;19.310;2023-05-29T04:54:04;24.83;;;13.05;;
17818;SDS011;9034;50.284;19.310;2023-05-29T04:55:06;23.10;;;11.68;;
17818;SDS011;9034;50.284;19.310;2023-05-29T04:56:09;21.70;;;12.05;;
17818;SDS011;9034;50.284;19.310;2023-05-29T04:57:11;23.73;;;11.98;;
17818;SDS011;9034;50.284;19.310;2023-05-29T04:58:14;24.25;;;9.23;;
17818;SDS011;9034;50.284;19.310;2023-05-29T04:59:17;16.95;;;9.98;;
17818;SDS011;9034;50.284;19.310;2023-05-29T05:00:20;17.25;;;9.55;;
17818;SDS011;9034;50.284;19.310;2023-05-29T05:01:24;27.08;;;9.95;;
17818;SDS011;9034;50.284;19.310;2023-05-29T05:02:27;23.55;;;8.40;;
17818;SDS011;9034;50.284;19.310;2023-05-29T05:03:29;23.73;;;8.98;;
17818;SDS011;9034;50.284;19.310;2023-05-29T05:04:35;37.97;;;7.80;;
17818;SDS011;9034;50.284;19.310;2023-05-29T05:05:39;32.60;;;7.82;;
17818;SDS011;9034;50.284;19.310;2023-05-29T05:06:42;25.52;;;8.38;;
17818;SDS011;9034;50.284;19.310;2023-05-29T05:07:46;28.70;;;7.47;;
17818;SDS011;9034;50.284;19.310;2023-05-29T05:08:48;19.30;;;6.55;;
17818;SDS011;9034;50.284;19.310;2023-05-29T05:09:50;31.13;;;7.22;;
17818;SDS011;9034;50.284;19.310;2023-05-29T05:10:56;31.40;;;7.93;;
17818;SDS011;9034;50.284;19.310;2023-05-29T05:12:00;26.38;;;7.13;;
17818;SDS011;9034;50.284;19.310;2023-05-29T05:13:03;33.97;;;7.85;;
17818;SDS011;9034;50.284;19.310;2023-05-29T05:14:10;29.30;;;8.68;;
17818;SDS011;9034;50.284;19.310;2023-05-29T05:15:12;27.55;;;7.20;;
17818;SDS011;9034;50.284;19.310;2023-05-29T05:16:15;28.15;;;6.85;;
17818;SDS011;9034;50.284;19.310;2023-05-29T05:17:18;33.10;;;7.85;;
17818;SDS011;9034;50.284;19.310;2023-05-29T05:18:21;21.23;;;6.68;;
17818;SDS011;9034;50.284;19.310;2023-05-29T05:19:36;23.40;;;5.72;;
17818;SDS011;9034;50.284;19.310;2023-05-29T05:20:39;14.13;;;4.28;;
17818;SDS011;9034;50.284;19.310;2023-05-29T05:21:43;11.82;;;4.95;;
17818;SDS011;9034;50.284;19.310;2023-05-29T05:22:47;13.65;;;4.93;;
17818;SDS011;9034;50.284;19.310;2023-05-29T05:23:49;8.25;;;3.92;;
17818;SDS011;9034;50.284;19.310;2023-05-29T05:24:59;13.60;;;4.00;;
17818;SDS011;9034;50.284;19.310;2023-05-29T05:26:02;11.23;;;4.57;;
17818;SDS011;9034;50.284;19.310;2023-05-29T05:27:07;9.73;;;4.78;;
17818;SDS011;9034;50.284;19.310;2023-05-29T05:28:09;8.50;;;4.82;;
17818;SDS011;9034;50.284;19.310;2023-05-29T05:29:12;7.55;;;4.80;;
17818;SDS011;9034;50.284;19.310;2023-05-29T05:30:15;10.05;;;5.40;;
17818;SDS011;9034;50.284;19.310;2023-05-29T05:31:18;12.15;;;5.35;;
17818;SDS011;9034;50.284;19.310;2023-05-29T05:32:20;9.93;;;5.57;;
17818;SDS011;9034;50.284;19.310;2023-05-29T05:33:30;14.27;;;6.00;;
17818;SDS011;9034;50.284;19.310;2023-05-29T05:34:32;12.68;;;4.22;;
17818;SDS011;9034;50.284;19.310;2023-05-29T05:35:35;10.57;;;4.43;;
17818;SDS011;9034;50.284;19.310;2023-05-29T05:36:37;5.38;;;4.18;;
17818;SDS011;9034;50.284;19.310;2023-05-29T05:37:46;8.18;;;3.40;;
17818;SDS011;9034;50.284;19.310;2023-05-29T05:38:48;3.60;;;3.30;;
17818;SDS011;9034;50.284;19.310;2023-05-29T05:39:51;7.55;;;2.80;;
17818;SDS011;9034;50.284;19.310;2023-05-29T05:40:54;5.65;;;3.25;;
17818;SDS011;9034;50.284;19.310;2023-05-29T05:42:03;5.32;;;2.97;;
17818;SDS011;9034;50.284;19.310;2023-05-29T05:43:18;9.00;;;3.63;;
17818;SDS011;9034;50.284;19.310;2023-05-29T05:44:36;7.60;;;3.13;;
17818;SDS011;9034;50.284;19.310;2023-05-29T05:45:43;6.72;;;2.85;;
17818;SDS011;9034;50.284;19.310;2023-05-29T05:46:46;5.70;;;2.42;;
17818;SDS011;9034;50.284;19.310;2023-05-29T05:47:49;4.40;;;2.83;;
17818;SDS011;9034;50.284;19.310;2023-05-29T05:48:53;3.75;;;2.20;;
17818;SDS011;9034;50.284;19.310;2023-05-29T05:49:58;4.97;;;2.50;;
17818;SDS011;9034;50.284;19.310;2023-05-29T05:51:02;6.20;;;2.53;;
17818;SDS011;9034;50.284;19.310;2023-05-29T05:52:06;3.53;;;2.63;;
17818;SDS011;9034;50.284;19.310;2023-05-29T05:53:10;5.28;;;2.45;;
17818;SDS011;9034;50.284;19.310;2023-05-29T05:54:12;3.35;;;2.40;;
17818;SDS011;9034;50.284;19.310;2023-05-29T05:55:15;2.88;;;2.45;;
17818;SDS011;9034;50.284;19.310;2023-05-29T05:56:17;4.22;;;2.45;;
17818;SDS011;9034;50.284;19.310;2023-05-29T05:57:20;7.13;;;2.10;;
17818;SDS011;9034;50.284;19.310;2023-05-29T05:58:22;4.53;;;2.40;;
17818;SDS011;9034;50.284;19.310;2023-05-29T05:59:25;9.82;;;2.70;;
17818;SDS011;9034;50.284;19.310;2023-05-29T06:00:27;3.42;;;2.47;;
17818;SDS011;9034;50.284;19.310;2023-05-29T06:01:31;5.72;;;2.25;;
17818;SDS011;9034;50.284;19.310;2023-05-29T06:02:34;3.40;;;2.58;;
17818;SDS011;9034;50.284;19.310;2023-05-29T06:03:37;3.60;;;2.33;;
17818;SDS011;9034;50.284;19.310;2023-05-29T06:04:41;6.07;;;2.55;;
17818;SDS011;9034;50.284;19.310;2023-05-29T06:05:45;6.72;;;2.03;;
17818;SDS011;9034;50.284;19.310;2023-05-29T06:06:46;2.38;;;2.17;;
17818;SDS011;9034;50.284;19.310;2023-05-29T06:07:49;4.20;;;2.27;;
17818;SDS011;9034;50.284;19.310;2023-05-29T06:08:53;3.67;;;2.50;;
17818;SDS011;9034;50.284;19.310;2023-05-29T06:09:58;2.87;;;2.33;;
17818;SDS011;9034;50.284;19.310;2023-05-29T06:11:00;6.67;;;2.47;;
17818;SDS011;9034;50.284;19.310;2023-05-29T06:12:04;3.73;;;2.43;;
17818;SDS011;9034;50.284;19.310;2023-05-29T06:13:12;2.57;;;2.03;;
17818;SDS011;9034;50.284;19.310;2023-05-29T06:14:23;3.33;;;2.30;;
17818;SDS011;9034;50.284;19.310;2023-05-29T06:15:25;5.90;;;2.60;;
17818;SDS011;9034;50.284;19.310;2023-05-29T06:16:28;4.60;;;2.23;;
17818;SDS011;9034;50.284;19.310;2023-05-29T06:17:31;6.93;;;2.33;;
17818;SDS011;9034;50.284;19.310;2023-05-29T06:18:36;6.40;;;2.43;;
17818;SDS011;9034;50.284;19.310;2023-05-29T06:19:38;5.07;;;2.10;;
17818;SDS011;9034;50.284;19.310;2023-05-29T06:20:42;4.27;;;2.20;;
17818;SDS011;9034;50.284;19.310;2023-05-29T06:21:43;4.20;;;2.07;;
17818;SDS011;9034;50.284;19.310;2023-05-29T06:22:46;3.20;;;2.30;;
17818;SDS011;9034;50.284;19.310;2023-05-29T06:23:53;4.03;;;2.00;;
17818;SDS011;9034;50.284;19.310;2023-05-29T06:24:55;2.67;;;2.00;;
17818;SDS011;9034;50.284;19.310;2023-05-29T06:25:58;3.30;;;2.27;;
17818;SDS011;9034;50.284;19.310;2023-05-29T06:27:01;4.27;;;2.00;;